KGED

Details ICAO KGED (GED)
Name Sussex Co
Region United States
Timezone America/New_York (UTC-5.0)
Plans Departing 6
Arriving 4
Stats Elevation 50 ft / 15 m (AMSL)
Location 38.687132° -75.358397°
Runways 2
Magnetic Variation 11.737° W
Sunrise 2017-12-12 12:11:41 UTC / 2017-12-12 07:11:41 Local
Sunset 2017-12-12 21:41:42 UTC / 2017-12-12 16:41:42 Local
Advertisement - Login to hide

Runways

ID Width Length Bearing (true) Bearing (mag) Surface Threshold Offset Overrun Length
04 151 ft / 46 m 5,003 ft / 1,525 m 32.81° 44.55° Asphalt 0 ft / 0 m 0 ft / 0 m
10 75 ft / 23 m 3,112 ft / 949 m 92.80° 104.54° Asphalt 0 ft / 0 m 30 ft / 9 m
22 151 ft / 46 m 5,003 ft / 1,525 m 212.81° 224.55° Asphalt 0 ft / 0 m 0 ft / 0 m
28 75 ft / 23 m 3,112 ft / 949 m 272.80° 284.54° Asphalt 0 ft / 0 m 30 ft / 9 m

Map

Weather


0- 5 10 15 20 25 30 35+ Temperature / ° C

Clouds and Precipitation
Forecast for 2017-12-12 12:00 UTC. Updated 2 hours ago

Ground ~20,000 ft ~40,000 ft Winds

METAR

KGED 121154Z AUTO 18008KT 10SM BKN110 07/00 A2966 RMK AO2 SLP043 T00670000 10067 20028 56041

TAF

Not found

Frequencies

Recorded 118.37 MHz ASOS
Approach 132.42 MHz DOVER APP/DEP
Unicom 123.00 MHz CTAF/UNICOM
Warning: Do not use this data for real-world aviation or navigation. No guarantee of current accuracy is given.